createdAt,value
2023-01-29T00:01:56.282Z,89.38
2023-01-29T00:05:25.465Z,75.18
2023-01-29T00:08:07.242Z,88.68
2023-01-29T00:10:50.959Z,74.95
2023-01-29T00:13:33.289Z,88.07
2023-01-29T00:16:33.178Z,81.35
2023-01-29T00:19:15.970Z,76.30
2023-01-29T00:21:48.603Z,88.20
2023-01-29T00:24:21.359Z,89.72
2023-01-29T00:26:52.621Z,90.88
2023-01-29T00:29:20.384Z,87.43
2023-01-29T00:32:09.329Z,77.47
2023-01-29T00:34:47.872Z,92.47
2023-01-29T00:37:23.819Z,92.95
2023-01-29T00:39:53.606Z,86.93
2023-01-29T00:43:05.406Z,84.00
2023-01-29T00:45:47.212Z,83.93
2023-01-29T00:48:16.812Z,76.75
2023-01-29T00:51:08.133Z,83.82
2023-01-29T00:53:55.145Z,77.35
2023-01-29T00:56:41.069Z,85.97
2023-01-29T00:59:15.895Z,78.05
2023-01-29T01:02:12.938Z,82.72
2023-01-29T01:05:01.373Z,93.43
2023-01-29T01:07:41.361Z,85.03
2023-01-29T01:10:38.261Z,85.20
2023-01-29T01:13:23.743Z,88.88
2023-01-29T01:16:11.758Z,80.38
2023-01-29T01:18:56.928Z,85.20
2023-01-29T01:21:38.395Z,90.70
2023-01-29T01:24:22.251Z,78.72
2023-01-29T01:27:04.357Z,81.63
2023-01-29T01:29:49.712Z,89.90
2023-01-29T01:32:28.005Z,88.38
2023-01-29T01:34:59.258Z,80.53
2023-01-29T01:37:46.211Z,76.90
2023-01-29T01:40:21.564Z,87.53
2023-01-29T01:42:56.279Z,81.40
2023-01-29T01:45:48.872Z,79.63
2023-01-29T01:48:27.420Z,76.43
2023-01-29T01:51:08.379Z,82.88
2023-01-29T01:54:05.924Z,81.80
2023-01-29T01:56:54.971Z,80.70
2023-01-29T01:59:36.012Z,76.93
2023-01-29T02:02:22.949Z,92.43
2023-01-29T02:05:12.474Z,84.78
2023-01-29T02:08:07.695Z,81.10
2023-01-29T02:10:48.954Z,86.07
2023-01-29T02:13:27.541Z,81.15
2023-01-29T02:15:54.090Z,80.43
2023-01-29T02:18:22.125Z,79.43
2023-01-29T02:21:29.222Z,76.70
2023-01-29T02:24:07.681Z,74.38
2023-01-29T02:26:59.945Z,85.10
2023-01-29T02:29:56.415Z,78.55
2023-01-29T02:32:56.676Z,80.53
2023-01-29T02:35:35.154Z,78.20
2023-01-29T02:38:37.063Z,88.07
2023-01-29T02:41:37.233Z,82.43
2023-01-29T02:44:15.594Z,84.13
2023-01-29T02:47:04.143Z,90.25
2023-01-29T02:49:40.097Z,87.65
2023-01-29T02:52:26.822Z,77.10
2023-01-29T02:55:09.407Z,89.03
2023-01-29T02:57:46.208Z,87.53
2023-01-29T03:03:34.987Z,90.15
2023-01-29T03:06:28.313Z,81.68
2023-01-29T03:09:02.178Z,81.38
2023-01-29T03:11:35.539Z,77.25
2023-01-29T03:14:55.324Z,81.05
2023-01-29T03:17:33.957Z,80.90
2023-01-29T03:20:16.282Z,85.33
2023-01-29T03:22:51.913Z,77.78
2023-01-29T03:25:41.811Z,92.75
2023-01-29T03:28:30.913Z,87.53
2023-01-29T03:31:26.076Z,77.50
2023-01-29T03:34:10.008Z,91.07
2023-01-29T03:37:09.527Z,73.40
2023-01-29T03:39:37.072Z,81.60
2023-01-29T03:42:18.884Z,81.80
2023-01-29T03:45:00.491Z,78.03
2023-01-29T03:48:04.561Z,84.18
2023-01-29T03:50:56.950Z,84.28
2023-01-29T03:53:23.454Z,90.13
2023-01-29T03:55:59.943Z,88.00
2023-01-29T03:58:57.949Z,93.13
2023-01-29T04:01:40.894Z,87.77
2023-01-29T04:04:19.402Z,85.43
2023-01-29T04:06:53.194Z,79.70
2023-01-29T04:09:32.118Z,82.78
2023-01-29T04:12:14.425Z,84.97
2023-01-29T04:14:43.613Z,87.60
2023-01-29T04:17:30.127Z,87.65
2023-01-29T04:20:14.125Z,77.78
2023-01-29T04:22:47.989Z,93.30
2023-01-29T04:25:29.814Z,86.82
2023-01-29T04:28:21.763Z,82.03
2023-01-29T04:30:59.135Z,80.28
2023-01-29T04:34:03.248Z,82.50
2023-01-29T04:36:56.733Z,88.33
2023-01-29T04:39:53.822Z,89.05
2023-01-29T04:42:39.082Z,81.83
2023-01-29T04:45:18.286Z,88.03
2023-01-29T04:48:29.953Z,80.95
2023-01-29T04:51:07.268Z,80.45
2023-01-29T04:54:20.658Z,77.10
2023-01-29T04:57:07.111Z,86.43
2023-01-29T04:59:49.148Z,89.72
2023-01-29T05:02:27.447Z,83.97
2023-01-29T05:04:56.065Z,77.87
2023-01-29T05:07:27.364Z,80.40
2023-01-29T05:09:55.698Z,83.22
2023-01-29T05:12:29.978Z,77.40
2023-01-29T05:15:03.084Z,84.03
2023-01-29T05:17:29.889Z,78.82
2023-01-29T05:19:59.550Z,87.80
2023-01-29T05:22:57.783Z,79.00
2023-01-29T05:25:34.857Z,83.67
2023-01-29T05:28:16.715Z,79.87
2023-01-29T05:30:48.787Z,85.05
2023-01-29T05:33:25.340Z,91.70
2023-01-29T05:35:52.380Z,83.18
2023-01-29T05:38:29.097Z,85.67
2023-01-29T05:43:39.779Z,82.17
2023-01-29T05:46:08.837Z,80.40
2023-01-29T05:48:42.727Z,92.07
2023-01-29T05:51:09.361Z,82.10
2023-01-29T05:53:36.080Z,74.67
2023-01-29T05:56:04.455Z,85.53
2023-01-29T05:58:45.246Z,80.28
2023-01-29T06:01:25.764Z,87.28
2023-01-29T06:03:52.933Z,86.90
2023-01-29T06:06:19.609Z,88.00
2023-01-29T06:08:46.792Z,83.27
2023-01-29T06:11:15.078Z,78.43
2023-01-29T06:13:41.675Z,72.90
2023-01-29T06:16:09.607Z,80.90
2023-01-29T06:18:48.975Z,80.30
2023-01-29T06:21:19.967Z,81.47
2023-01-29T06:23:47.666Z,84.05
2023-01-29T06:26:15.819Z,77.47
2023-01-29T06:28:43.021Z,87.47
2023-01-29T06:31:28.433Z,85.70
2023-01-29T06:33:57.850Z,83.30
2023-01-29T06:36:30.157Z,86.65
2023-01-29T06:38:59.763Z,84.23
2023-01-29T06:41:51.167Z,82.20
2023-01-29T06:44:17.738Z,84.23
2023-01-29T06:46:46.924Z,84.67
2023-01-29T06:52:15.861Z,86.13
2023-01-29T06:54:42.436Z,84.50
2023-01-29T06:57:11.850Z,86.13
2023-01-29T06:59:38.388Z,85.03
2023-01-29T07:02:18.191Z,80.97
2023-01-29T07:04:44.888Z,88.80
2023-01-29T07:07:16.322Z,85.67
2023-01-29T07:09:44.841Z,82.20
2023-01-29T07:12:11.931Z,78.53
2023-01-29T07:14:38.493Z,76.67
2023-01-29T07:17:05.029Z,86.97
2023-01-29T07:19:31.762Z,82.93
2023-01-29T07:22:07.203Z,79.30
2023-01-29T07:24:33.951Z,75.63
2023-01-29T07:27:07.087Z,77.30
2023-01-29T07:29:33.829Z,78.30
2023-01-29T07:32:06.680Z,81.37
2023-01-29T07:34:37.124Z,82.90
2023-01-29T07:37:07.028Z,96.80
2023-01-29T07:42:23.495Z,85.82
2023-01-29T07:45:01.958Z,79.60
2023-01-29T07:47:34.935Z,81.43
2023-01-29T07:50:05.567Z,89.45
2023-01-29T07:52:33.939Z,76.13
2023-01-29T07:55:02.352Z,77.78
2023-01-29T07:57:40.443Z,80.80
2023-01-29T08:00:10.552Z,90.13
2023-01-29T08:02:37.687Z,95.10
2023-01-29T08:05:06.443Z,80.13
2023-01-29T08:07:36.214Z,80.83
2023-01-29T08:10:13.352Z,88.10
2023-01-29T08:12:47.218Z,87.22
2023-01-29T08:15:21.194Z,90.53
2023-01-29T08:20:41.217Z,94.07
2023-01-29T08:23:13.225Z,87.83
2023-01-29T08:25:39.876Z,87.80
2023-01-29T08:28:35.642Z,83.65
2023-01-29T08:31:05.478Z,88.77
2023-01-29T08:36:35.766Z,96.70
2023-01-29T08:39:05.579Z,84.10
2023-01-29T08:41:40.696Z,89.25
2023-01-29T08:44:09.636Z,79.80
2023-01-29T08:46:44.649Z,94.95
2023-01-29T08:49:12.410Z,82.17
2023-01-29T08:51:39.039Z,85.07
2023-01-29T08:54:15.755Z,89.33
2023-01-29T08:56:44.233Z,96.60
2023-01-29T08:59:21.399Z,88.93
2023-01-29T09:01:48.367Z,89.72
2023-01-29T09:04:27.722Z,82.15
2023-01-29T09:06:54.359Z,90.60
2023-01-29T09:09:22.526Z,86.55
2023-01-29T09:12:03.896Z,100.30
2023-01-29T09:14:31.588Z,92.97
2023-01-29T09:17:17.282Z,88.38
2023-01-29T09:19:43.874Z,90.63
2023-01-29T09:22:11.911Z,92.68
2023-01-29T09:24:44.637Z,86.18
2023-01-29T09:27:17.965Z,102.35
2023-01-29T09:29:50.132Z,100.68
2023-01-29T09:35:07.252Z,103.18
2023-01-29T09:37:33.863Z,106.70
2023-01-29T09:40:20.704Z,110.95
2023-01-29T09:42:57.648Z,115.57
2023-01-29T09:45:25.267Z,102.63
2023-01-29T09:47:55.663Z,95.50
2023-01-29T09:50:36.767Z,99.20
2023-01-29T09:53:29.946Z,92.75
2023-01-29T09:56:10.645Z,101.65
2023-01-29T09:58:45.499Z,101.05
2023-01-29T10:01:41.112Z,100.90
2023-01-29T10:05:03.312Z,99.90
2023-01-29T10:08:16.322Z,82.65
2023-01-29T10:11:41.556Z,91.03
2023-01-29T10:14:38.092Z,100.43
2023-01-29T10:17:19.688Z,103.07
2023-01-29T10:20:11.361Z,97.70
2023-01-29T10:22:57.320Z,113.90
2023-01-29T10:25:27.309Z,103.05
2023-01-29T10:27:57.515Z,104.65
2023-01-29T10:30:33.707Z,101.78
2023-01-29T10:33:05.182Z,103.72
2023-01-29T10:35:56.887Z,99.97
2023-01-29T10:38:33.578Z,102.93
2023-01-29T10:41:30.771Z,98.55
2023-01-29T10:44:17.398Z,91.47
2023-01-29T10:47:03.096Z,104.97
2023-01-29T10:50:13.338Z,103.43
2023-01-29T10:53:05.942Z,99.07
2023-01-29T10:59:32.524Z,92.95
2023-01-29T11:02:12.808Z,95.95
2023-01-29T11:04:47.658Z,96.15
2023-01-29T11:07:19.901Z,85.60
2023-01-29T11:10:00.313Z,91.47
2023-01-29T11:12:50.263Z,89.65
2023-01-29T11:15:29.465Z,87.47
2023-01-29T11:18:15.750Z,91.05
2023-01-29T11:20:45.461Z,84.57
2023-01-29T11:23:33.165Z,81.18
2023-01-29T11:26:09.850Z,82.45
2023-01-29T11:28:44.677Z,87.93
2023-01-29T11:31:27.693Z,86.75
2023-01-29T11:34:27.864Z,87.88
2023-01-29T11:37:04.511Z,84.15
2023-01-29T11:39:33.049Z,82.88
2023-01-29T11:42:08.753Z,93.22
2023-01-29T11:44:40.887Z,81.93
2023-01-29T11:50:20.512Z,81.25
2023-01-29T11:52:47.999Z,73.47
2023-01-29T11:55:49.833Z,71.20
2023-01-29T11:58:34.039Z,81.15
2023-01-29T12:01:02.449Z,76.68
2023-01-29T12:03:55.337Z,76.50
2023-01-29T12:06:44.665Z,69.97
2023-01-29T12:09:19.889Z,79.25
2023-01-29T12:11:49.656Z,75.95
2023-01-29T12:14:46.040Z,72.68
2023-01-29T12:17:40.663Z,70.38
2023-01-29T12:20:53.351Z,73.78
2023-01-29T12:24:14.733Z,74.57
2023-01-29T12:27:10.770Z,57.70
2023-01-29T12:29:54.889Z,62.67
2023-01-29T12:32:49.890Z,63.85
2023-01-29T12:35:48.814Z,58.75
2023-01-29T12:38:20.773Z,59.47
2023-01-29T12:40:58.019Z,60.80
2023-01-29T12:43:47.675Z,58.88
2023-01-29T12:46:26.691Z,54.20
2023-01-29T12:49:02.396Z,57.95
2023-01-29T12:51:38.791Z,51.85
2023-01-29T12:54:26.049Z,46.97
2023-01-29T12:57:13.569Z,58.22
2023-01-29T12:59:46.150Z,45.20
2023-01-29T13:02:33.099Z,47.67
2023-01-29T13:05:15.653Z,49.65
2023-01-29T13:07:56.898Z,42.53
2023-01-29T13:10:48.590Z,50.65
2023-01-29T13:13:44.103Z,39.13
2023-01-29T13:16:15.842Z,49.03
2023-01-29T13:19:06.546Z,46.30
2023-01-29T13:21:42.124Z,43.92
2023-01-29T13:24:19.573Z,40.80
2023-01-29T13:26:50.004Z,45.60
2023-01-29T13:29:29.092Z,39.22
2023-01-29T13:31:58.862Z,44.55
2023-01-29T13:34:45.740Z,44.05
2023-01-29T13:37:40.123Z,37.15
2023-01-29T13:40:07.836Z,38.53
2023-01-29T13:42:52.635Z,36.40
2023-01-29T13:45:45.616Z,38.65
2023-01-29T13:48:53.934Z,32.97
2023-01-29T13:51:30.941Z,38.63
2023-01-29T13:54:10.298Z,40.78
2023-01-29T13:56:48.159Z,37.47
2023-01-29T13:59:46.825Z,38.50
2023-01-29T14:02:38.209Z,35.95
2023-01-29T14:05:36.454Z,35.33
2023-01-29T14:08:08.918Z,35.08
2023-01-29T14:10:41.988Z,34.85
2023-01-29T14:13:11.777Z,36.15
2023-01-29T14:15:41.768Z,35.08
2023-01-29T14:18:11.421Z,29.25
2023-01-29T14:20:46.413Z,30.40
2023-01-29T14:23:55.326Z,28.90
2023-01-29T14:29:49.941Z,27.67
2023-01-29T14:35:49.448Z,29.38
2023-01-29T14:38:17.470Z,33.17
2023-01-29T14:40:57.495Z,33.17
2023-01-29T14:43:24.648Z,30.13
2023-01-29T14:46:00.487Z,29.23
2023-01-29T14:49:07.660Z,32.63
2023-01-29T14:52:06.652Z,26.77
2023-01-29T14:55:00.584Z,30.48
2023-01-29T14:57:44.519Z,31.00
2023-01-29T15:00:46.070Z,28.50
2023-01-29T15:03:40.952Z,28.73
2023-01-29T15:06:44.882Z,27.08
2023-01-29T15:09:41.809Z,32.42
2023-01-29T15:12:21.091Z,29.30
2023-01-29T15:15:10.540Z,31.10
2023-01-29T15:17:57.296Z,27.50
2023-01-29T15:20:39.400Z,31.75
2023-01-29T15:23:46.759Z,27.80
2023-01-29T15:26:27.087Z,26.25
2023-01-29T15:29:05.928Z,33.47
2023-01-29T15:31:46.889Z,30.88
2023-01-29T15:34:28.411Z,31.48
2023-01-29T15:36:55.471Z,43.65
2023-01-29T15:39:31.740Z,30.63
2023-01-29T15:42:21.711Z,29.38
2023-01-29T15:44:57.686Z,33.25
2023-01-29T15:47:42.651Z,28.75
2023-01-29T15:50:17.649Z,34.08
2023-01-29T15:53:02.668Z,23.48
2023-01-29T15:55:34.061Z,32.85
2023-01-29T15:58:04.679Z,33.85
2023-01-29T16:00:34.605Z,34.78
2023-01-29T16:03:19.219Z,31.77
2023-01-29T16:05:48.699Z,31.48
2023-01-29T16:08:26.991Z,31.52
2023-01-29T16:11:01.853Z,29.35
2023-01-29T16:13:43.725Z,29.98
2023-01-29T16:16:26.991Z,33.13
2023-01-29T16:19:01.360Z,37.70
2023-01-29T16:21:47.590Z,26.95
2023-01-29T16:24:25.855Z,31.17
2023-01-29T16:27:02.142Z,27.23
2023-01-29T16:29:34.323Z,29.58
2023-01-29T16:34:46.359Z,33.10
2023-01-29T16:37:39.873Z,30.42
2023-01-29T16:40:28.828Z,39.08
2023-01-29T16:43:17.952Z,33.65
2023-01-29T16:46:32.007Z,33.13
2023-01-29T16:49:08.426Z,33.55
2023-01-29T16:51:42.070Z,30.67
2023-01-29T16:54:20.017Z,40.33
2023-01-29T16:56:55.619Z,36.60
2023-01-29T16:59:42.228Z,36.03
2023-01-29T17:02:37.015Z,39.60
2023-01-29T17:05:10.216Z,36.55
2023-01-29T17:07:38.222Z,33.67
2023-01-29T17:10:08.831Z,34.88
2023-01-29T17:12:40.707Z,34.55
2023-01-29T17:15:35.145Z,32.80
2023-01-29T17:18:02.878Z,35.50
2023-01-29T17:20:33.012Z,37.30
2023-01-29T17:23:03.397Z,32.90
2023-01-29T17:25:33.912Z,35.67
2023-01-29T17:28:06.916Z,38.40
2023-01-29T17:30:40.801Z,31.90
2023-01-29T17:33:32.051Z,36.35
2023-01-29T17:36:06.759Z,37.47
2023-01-29T17:38:33.757Z,32.47
2023-01-29T17:41:21.747Z,39.88
2023-01-29T17:43:49.288Z,47.17
2023-01-29T17:46:19.028Z,43.40
2023-01-29T17:48:54.076Z,32.47
2023-01-29T17:51:23.419Z,37.13
2023-01-29T17:54:00.473Z,39.35
2023-01-29T17:56:27.670Z,36.90
2023-01-29T17:58:59.186Z,35.88
2023-01-29T18:01:26.889Z,37.00
2023-01-29T18:03:53.659Z,37.75
2023-01-29T18:06:33.489Z,39.15
2023-01-29T18:09:00.124Z,44.45
2023-01-29T18:11:28.303Z,35.40
2023-01-29T18:14:14.221Z,36.75
2023-01-29T18:16:50.937Z,35.67
2023-01-29T18:19:31.281Z,38.80
2023-01-29T18:21:58.294Z,36.50
2023-01-29T18:24:38.184Z,33.22
2023-01-29T18:27:04.922Z,35.97
2023-01-29T18:29:37.820Z,40.25
2023-01-29T18:32:04.785Z,37.90
2023-01-29T18:34:31.787Z,33.97
2023-01-29T18:36:59.749Z,32.50
2023-01-29T18:39:30.803Z,40.47
2023-01-29T18:41:58.311Z,36.45
2023-01-29T18:44:32.896Z,45.35
2023-01-29T18:47:18.314Z,39.22
2023-01-29T18:50:10.333Z,35.42
2023-01-29T18:52:37.598Z,38.67
2023-01-29T18:55:10.855Z,41.92
2023-01-29T18:58:28.577Z,40.28
2023-01-29T19:00:27.030Z,41.35
2023-01-29T19:02:59.913Z,39.42
2023-01-29T19:05:29.817Z,38.10
2023-01-29T19:07:56.693Z,36.33
2023-01-29T19:10:23.342Z,38.17
2023-01-29T19:12:50.415Z,32.22
2023-01-29T19:15:23.337Z,36.35
2023-01-29T19:17:56.106Z,41.63
2023-01-29T19:20:22.852Z,42.33
2023-01-29T19:23:02.279Z,40.10
2023-01-29T19:25:28.785Z,35.65
2023-01-29T19:27:55.331Z,34.28
2023-01-29T19:30:24.695Z,34.85
2023-01-29T19:32:53.540Z,36.63
2023-01-29T19:35:20.292Z,35.10
2023-01-29T19:37:47.043Z,35.70
2023-01-29T19:40:14.975Z,37.58
2023-01-29T19:45:37.370Z,38.40
2023-01-29T19:48:20.414Z,43.75
2023-01-29T19:51:18.154Z,35.13
2023-01-29T19:53:53.106Z,37.70
2023-01-29T19:56:22.448Z,41.00
2023-01-29T19:58:49.866Z,38.00
2023-01-29T20:01:20.220Z,34.40
2023-01-29T20:03:49.415Z,33.00
2023-01-29T20:06:22.129Z,41.78
2023-01-29T20:08:48.943Z,37.20
2023-01-29T20:11:27.946Z,36.65
2023-01-29T20:13:57.708Z,39.10
2023-01-29T20:16:26.073Z,37.92
2023-01-29T20:18:52.856Z,40.35
2023-01-29T20:21:22.186Z,34.50
2023-01-29T20:23:51.463Z,37.05
2023-01-29T20:26:22.168Z,44.33
2023-01-29T20:28:49.221Z,44.35
2023-01-29T20:31:24.988Z,42.85
2023-01-29T20:33:51.828Z,42.15
2023-01-29T20:36:20.231Z,39.17
2023-01-29T20:38:50.123Z,44.75
2023-01-29T20:41:19.336Z,42.90
2023-01-29T20:43:49.549Z,40.92
2023-01-29T20:46:16.953Z,36.63
2023-01-29T20:48:47.389Z,42.38
2023-01-29T20:51:21.016Z,40.33
2023-01-29T20:54:00.478Z,36.33
2023-01-29T20:56:39.055Z,37.63
2023-01-29T20:59:13.595Z,34.95
2023-01-29T21:01:41.014Z,38.78
2023-01-29T21:04:07.924Z,37.30
2023-01-29T21:06:40.653Z,37.00
2023-01-29T21:09:07.460Z,33.25
2023-01-29T21:11:34.189Z,35.80
2023-01-29T21:14:02.031Z,36.42
2023-01-29T21:16:28.984Z,36.47
2023-01-29T21:19:07.721Z,36.92
2023-01-29T21:21:35.004Z,33.75
2023-01-29T21:24:01.665Z,37.70
2023-01-29T21:26:28.449Z,34.90
2023-01-29T21:28:56.161Z,35.00
2023-01-29T21:31:31.983Z,36.92
2023-01-29T21:34:06.648Z,34.00
2023-01-29T21:36:34.687Z,36.08
2023-01-29T21:39:01.886Z,39.10
2023-01-29T21:41:47.151Z,36.58
2023-01-29T21:44:13.901Z,34.55
2023-01-29T21:46:40.471Z,32.65
2023-01-29T21:49:07.505Z,33.05
2023-01-29T21:51:44.203Z,27.02
2023-01-29T21:54:18.988Z,27.52
2023-01-29T21:56:55.873Z,32.95
2023-01-29T21:59:22.525Z,35.95
2023-01-29T22:01:49.642Z,33.70
2023-01-29T22:04:18.915Z,33.97
2023-01-29T22:06:46.463Z,36.35
2023-01-29T22:09:15.870Z,33.40
2023-01-29T22:11:52.016Z,37.40
2023-01-29T22:14:25.806Z,32.83
2023-01-29T22:16:59.041Z,33.30
2023-01-29T22:19:29.720Z,37.60
2023-01-29T22:21:56.652Z,33.40
2023-01-29T22:24:23.344Z,34.80
2023-01-29T22:26:59.837Z,33.55
2023-01-29T22:29:29.258Z,37.50
2023-01-29T22:31:59.166Z,34.88
2023-01-29T22:34:27.940Z,36.95
2023-01-29T22:36:54.513Z,38.50
2023-01-29T22:39:33.271Z,39.65
2023-01-29T22:42:06.258Z,42.67
2023-01-29T22:44:49.749Z,36.78
2023-01-29T22:47:18.086Z,38.15
2023-01-29T22:49:56.989Z,34.47
2023-01-29T22:52:23.855Z,35.85
2023-01-29T22:54:51.566Z,37.92
2023-01-29T22:57:19.343Z,34.22
2023-01-29T22:59:49.113Z,43.83
2023-01-29T23:02:22.621Z,37.75
2023-01-29T23:04:51.418Z,37.10
2023-01-29T23:07:34.306Z,38.60
2023-01-29T23:10:01.092Z,39.40
2023-01-29T23:12:34.797Z,37.40
2023-01-29T23:15:01.341Z,34.97
2023-01-29T23:17:41.741Z,262.65
2023-01-29T23:20:16.989Z,96.35
2023-01-29T23:22:43.648Z,177.52
2023-01-29T23:25:10.241Z,129.52
2023-01-29T23:27:44.779Z,70.35
2023-01-29T23:30:11.836Z,73.03
2023-01-29T23:32:41.332Z,56.15
2023-01-29T23:35:11.689Z,38.80
2023-01-29T23:37:39.952Z,44.55
2023-01-29T23:40:09.748Z,42.20
2023-01-29T23:42:39.097Z,32.65
2023-01-29T23:45:15.996Z,34.28
2023-01-29T23:47:48.157Z,34.30
2023-01-29T23:52:55.512Z,32.00
2023-01-29T23:55:22.036Z,31.67
2023-01-29T23:57:53.389Z,30.67
